logo
Search for airport 
image banner adimage banner adimage banner ad
image banner ad

LZTRNA - Trnava Kopanka

Located in Tranva, Slovakia

ICAO - , IATA -

Data provided by Airmate  

General information

Coordinates: N48°24'0" E17°36'42"
Elevation is 525 feet MSL.
 
View others Airports in Trnava

Operational data

Special qualification required
Current time UTC:
Current local time:
Weather at : LZPP - Piestany ( 30 km )
METAR: LZPP 140100Z AUTO 34002KT 9999 NCD 07/06 Q1022
TAF: TAF LZPP 131715Z 1318/1403 28007KT CAVOK BECMG 1320/1322 VRB02KT
View NOTAMs / SUP AIP / TFR affecting this airport [VIEW]
Communications frequencies: [VIEW]

Runways:

RWY identifierQFULength (ft)Width (ft)SurfaceLDA (ft)
13134°196966GRASS1969
31314°196966GRASS1969

Airport contact information

Address: Tranva Slovakia

Satellite view of LZTRNA